Time;durP1;ratioP1;P1;durP2;ratioP2;P2;SDS_P1;SDS_P2;PMS_P1;PMS_P2;Temp;Humidity;BMP_temperature;BMP_pressure;BME280_temperature;BME280_humidity;BME280_pressure;Samples;Min_cycle;Max_cycle;Signal;HPM_P1;HPM_P2
2023/05/25 00:00:45;;;;;;;19.60;17.00;;;;;;;11.53;98.95;98367.04;106625;1278;24193;-83
2023/05/25 00:03:32;;;;;;;21.50;17.10;;;;;;;11.56;99.08;98366.52;107699;1278;22478;-82
2023/05/25 00:06:01;;;;;;;18.60;16.50;;;;;;;11.54;99.23;98366.49;108124;1278;23317;-81
2023/05/25 00:08:29;;;;;;;16.60;14.80;;;;;;;11.51;99.32;98366.10;107841;1278;22549;-81
2023/05/25 00:10:57;;;;;;;18.80;16.80;;;;;;;11.50;99.76;98364.08;107457;1278;25258;-80
2023/05/25 00:13:26;;;;;;;19.80;17.60;;;;;;;11.47;99.54;98363.41;107529;1278;22521;-81
2023/05/25 00:15:54;;;;;;;19.00;15.40;;;;;;;11.47;99.71;98365.36;107568;1278;24302;-81
2023/05/25 00:18:23;;;;;;;18.30;16.50;;;;;;;11.47;99.98;98362.72;106696;1267;25442;-82
2023/05/25 00:20:54;;;;;;;24.20;18.30;;;;;;;11.46;99.71;98359.66;106771;1278;23028;-82
2023/05/25 00:23:22;;;;;;;22.40;18.80;;;;;;;11.48;99.69;98361.69;106782;1278;23181;-81
2023/05/25 00:25:50;;;;;;;20.00;17.60;;;;;;;11.47;99.69;98362.18;106710;1278;22531;-82
2023/05/25 00:28:18;;;;;;;20.40;18.20;;;;;;;11.46;99.60;98367.43;106768;1278;22536;-81
2023/05/25 00:30:46;;;;;;;20.30;17.80;;;;;;;11.42;99.47;98367.66;106658;1278;22663;-79
2023/05/25 00:33:15;;;;;;;17.70;15.80;;;;;;;11.41;99.55;98368.24;106741;1278;22664;-81
2023/05/25 00:35:43;;;;;;;20.50;17.00;;;;;;;11.42;99.58;98369.65;106813;1278;25353;-80
2023/05/25 00:38:15;;;;;;;17.20;15.00;;;;;;;11.44;99.79;98371.45;106701;1278;22887;-80
2023/05/25 00:40:45;;;;;;;20.60;16.50;;;;;;;11.44;99.80;98375.34;106632;1278;22542;-80
2023/05/25 00:43:13;;;;;;;18.80;16.30;;;;;;;11.45;99.70;98378.95;106601;1278;22538;-80
2023/05/25 00:45:41;;;;;;;20.30;16.90;;;;;;;11.45;99.95;98382.06;106737;1278;25956;-82
2023/05/25 00:48:10;;;;;;;18.40;16.50;;;;;;;11.41;99.94;98380.61;106782;1274;22601;-82
2023/05/25 00:50:44;;;;;;;22.80;17.00;;;;;;;11.39;99.87;98378.05;106674;1278;23928;-82
2023/05/25 00:53:13;;;;;;;17.80;15.90;;;;;;;11.43;100.00;98376.74;106664;1278;24286;-82
2023/05/25 00:56:01;;;;;;;17.10;15.50;;;;;;;11.41;99.95;98374.17;106664;1278;23408;-81
2023/05/25 00:58:32;;;;;;;17.80;15.60;;;;;;;11.45;99.94;98374.78;106746;1278;22550;-82
2023/05/25 01:01:02;;;;;;;18.10;14.80;;;;;;;11.41;99.99;98373.39;106741;1278;22522;-82
2023/05/25 01:03:36;;;;;;;17.70;15.50;;;;;;;11.40;100.00;98369.30;106671;1278;22534;-81
2023/05/25 01:06:13;;;;;;;18.90;15.10;;;;;;;11.38;100.00;98370.29;106600;1278;25256;-82
2023/05/25 01:08:48;;;;;;;16.70;14.00;;;;;;;11.38;100.00;98369.37;106718;1277;24194;-82
2023/05/25 01:11:20;;;;;;;18.10;15.60;;;;;;;11.35;99.94;98374.42;106650;1278;24436;-83
2023/05/25 01:13:52;;;;;;;16.20;14.10;;;;;;;11.32;100.00;98373.67;106717;1278;24225;-82
2023/05/25 01:16:21;;;;;;;15.80;14.20;;;;;;;11.31;100.00;98375.89;106661;1278;25585;-81
2023/05/25 01:18:51;;;;;;;16.80;14.10;;;;;;;11.32;100.00;98377.82;106656;1278;24325;-82
2023/05/25 01:21:28;;;;;;;14.60;12.80;;;;;;;11.31;100.00;98383.51;106642;1278;22688;-81
2023/05/25 01:24:02;;;;;;;17.40;13.90;;;;;;;11.28;100.00;98380.53;106666;1278;22581;-81
2023/05/25 01:26:38;;;;;;;16.20;13.30;;;;;;;11.24;100.00;98378.44;106765;1278;22528;-82
2023/05/25 01:29:10;;;;;;;16.20;13.90;;;;;;;11.22;100.00;98377.54;106732;1278;24270;-81
2023/05/25 01:31:39;;;;;;;16.00;14.30;;;;;;;11.21;100.00;98381.05;106708;1278;24028;-84
2023/05/25 01:34:09;;;;;;;15.50;13.80;;;;;;;11.16;100.00;98381.27;106622;1278;22532;-82
2023/05/25 01:36:40;;;;;;;16.00;13.40;;;;;;;11.16;100.00;98381.33;106619;1278;22632;-83
2023/05/25 01:39:10;;;;;;;16.10;13.90;;;;;;;11.13;100.00;98380.63;106693;1278;24350;-82
2023/05/25 01:41:38;;;;;;;16.00;12.70;;;;;;;11.11;100.00;98376.94;106681;1278;22848;-82
2023/05/25 01:44:07;;;;;;;17.80;14.80;;;;;;;11.12;100.00;98376.48;106684;1278;22626;-82
2023/05/25 01:46:39;;;;;;;16.50;14.80;;;;;;;11.11;100.00;98381.83;106578;1278;22550;-81
2023/05/25 01:49:16;;;;;;;19.60;16.60;;;;;;;11.10;100.00;98377.52;106663;1278;22597;-81
2023/05/25 01:51:44;;;;;;;16.90;14.30;;;;;;;11.07;100.00;98381.66;106635;1278;24196;-81
2023/05/25 01:54:19;;;;;;;16.20;14.50;;;;;;;11.08;100.00;98380.46;106632;1278;22791;-82
2023/05/25 01:56:50;;;;;;;16.50;14.80;;;;;;;11.06;100.00;98374.94;106706;1278;22528;-80
2023/05/25 01:59:20;;;;;;;16.90;15.20;;;;;;;11.07;100.00;98372.45;106632;1278;22566;-81
2023/05/25 02:01:52;;;;;;;17.30;15.50;;;;;;;11.10;100.00;98373.11;106636;1278;22626;-82
2023/05/25 02:04:21;;;;;;;16.90;15.30;;;;;;;11.13;100.00;98370.31;106802;1278;22650;-82
2023/05/25 02:06:53;;;;;;;16.80;15.10;;;;;;;11.10;100.00;98371.06;107022;1278;22524;-79
2023/05/25 02:09:22;;;;;;;18.40;16.30;;;;;;;11.06;100.00;98364.31;106500;1278;25338;-81
2023/05/25 02:11:51;;;;;;;17.40;14.90;;;;;;;11.06;100.00;98361.40;106761;1278;22747;-82
2023/05/25 02:14:19;;;;;;;17.90;15.70;;;;;;;11.08;100.00;98359.97;106769;1278;22653;-82
2023/05/25 02:16:47;;;;;;;17.50;15.10;;;;;;;11.07;100.00;98356.52;106648;1278;22647;-81
2023/05/25 02:19:15;;;;;;;18.90;16.90;;;;;;;11.08;100.00;98355.71;106673;1278;22531;-81
2023/05/25 02:21:43;;;;;;;19.70;17.60;;;;;;;11.07;100.00;98357.34;106648;1278;24718;-82
2023/05/25 02:24:12;;;;;;;20.80;18.70;;;;;;;11.04;100.00;98357.23;106774;1278;25956;-81
2023/05/25 02:26:40;;;;;;;18.50;16.50;;;;;;;11.00;100.00;98357.01;106664;1278;22548;-80
2023/05/25 02:29:08;;;;;;;21.40;19.30;;;;;;;10.98;100.00;98363.52;106759;1278;22523;-80
2023/05/25 02:31:37;;;;;;;21.70;19.50;;;;;;;10.99;100.00;98364.35;106659;1278;22551;-80
2023/05/25 02:34:05;;;;;;;23.70;21.50;;;;;;;11.01;100.00;98364.34;106738;1278;23525;-80
2023/05/25 02:36:36;;;;;;;32.00;23.10;;;;;;;11.00;100.00;98361.16;106590;1278;24182;-79
2023/05/25 02:39:04;;;;;;;23.30;21.20;;;;;;;10.96;100.00;98362.62;106718;1278;25442;-80
2023/05/25 02:41:33;;;;;;;23.90;21.50;;;;;;;10.96;100.00;98362.73;106587;1278;25507;-80
2023/05/25 02:44:01;;;;;;;22.80;20.50;;;;;;;10.97;100.00;98360.40;106598;1278;22664;-80
2023/05/25 02:46:32;;;;;;;22.40;20.30;;;;;;;10.97;100.00;98360.94;106627;1278;22737;-80
2023/05/25 02:49:00;;;;;;;23.70;21.60;;;;;;;10.99;100.00;98363.08;106602;1278;25278;-81
2023/05/25 02:51:29;;;;;;;25.00;22.60;;;;;;;10.96;100.00;98362.07;106554;1278;22649;-80
2023/05/25 02:53:58;;;;;;;26.40;23.90;;;;;;;10.93;100.00;98364.42;106731;1278;22527;-81
2023/05/25 02:56:27;;;;;;;24.60;22.40;;;;;;;10.91;100.00;98365.31;106739;1278;22832;-82
2023/05/25 02:58:55;;;;;;;26.20;23.50;;;;;;;10.89;100.00;98365.72;106695;1278;23053;-81
2023/05/25 03:01:30;;;;;;;27.00;24.80;;;;;;;10.88;100.00;98365.90;106595;1275;22636;-81
2023/05/25 03:04:00;;;;;;;29.40;26.90;;;;;;;10.87;100.00;98368.40;106605;1278;23044;-81
2023/05/25 03:06:32;;;;;;;28.90;26.30;;;;;;;10.84;100.00;98364.02;106619;1278;22627;-81
2023/05/25 03:09:08;;;;;;;27.20;24.80;;;;;;;10.79;100.00;98364.49;106623;1278;22566;-81
2023/05/25 03:11:37;;;;;;;28.20;25.50;;;;;;;10.78;100.00;98359.64;106653;1278;25335;-80
2023/05/25 03:14:06;;;;;;;25.50;23.30;;;;;;;10.77;100.00;98358.65;106642;1278;22541;-80
2023/05/25 03:16:35;;;;;;;24.80;22.50;;;;;;;10.76;100.00;98357.73;106638;1278;22532;-81
2023/05/25 03:19:04;;;;;;;25.00;22.80;;;;;;;10.75;100.00;98355.05;106570;1278;24959;-79
2023/05/25 03:21:34;;;;;;;27.50;25.00;;;;;;;10.76;100.00;98357.38;106686;1278;22632;-81
2023/05/25 03:24:02;;;;;;;27.80;25.40;;;;;;;10.73;100.00;98367.00;106657;1278;24716;-81
2023/05/25 03:26:32;;;;;;;25.80;23.60;;;;;;;10.73;100.00;98371.85;106571;1277;24258;-81
2023/05/25 03:29:01;;;;;;;26.70;24.30;;;;;;;10.72;100.00;98368.95;106588;1278;22520;-80
2023/05/25 03:31:29;;;;;;;25.40;22.90;;;;;;;10.73;100.00;98372.06;106603;1278;22619;-80
2023/05/25 03:33:57;;;;;;;24.90;22.80;;;;;;;10.77;100.00;98368.73;106563;1278;22518;-81
2023/05/25 03:36:31;;;;;;;25.80;23.20;;;;;;;10.76;100.00;98370.25;106604;1278;25416;-81
2023/05/25 03:38:59;;;;;;;27.00;24.60;;;;;;;10.74;100.00;98369.91;106597;1278;22492;-81
2023/05/25 03:41:28;;;;;;;28.10;25.50;;;;;;;10.75;100.00;98367.96;106646;1278;22637;-80
2023/05/25 03:43:57;;;;;;;30.30;27.70;;;;;;;10.74;100.00;98367.14;106514;1278;25288;-81
2023/05/25 03:46:25;;;;;;;29.80;26.20;;;;;;;10.69;100.00;98367.47;106559;1278;22639;-81
2023/05/25 03:48:56;;;;;;;27.90;25.30;;;;;;;10.65;100.00;98373.98;106543;1278;22542;-80
2023/05/25 03:51:24;;;;;;;27.40;24.70;;;;;;;10.63;100.00;98377.15;106563;1278;25571;-80
2023/05/25 03:53:52;;;;;;;25.60;23.30;;;;;;;10.63;100.00;98378.48;106599;1278;25354;-80
2023/05/25 03:56:21;;;;;;;27.70;25.00;;;;;;;10.66;100.00;98379.27;106839;1278;22647;-81
2023/05/25 03:58:51;;;;;;;25.20;22.70;;;;;;;10.65;100.00;98382.35;106866;1278;22648;-80
2023/05/25 04:01:19;;;;;;;26.50;23.70;;;;;;;10.64;100.00;98384.40;106665;1278;23905;-82
2023/05/25 04:03:47;;;;;;;28.50;25.50;;;;;;;10.62;100.00;98382.59;106555;1278;24234;-83
2023/05/25 04:06:18;;;;;;;27.60;24.90;;;;;;;10.61;100.00;98386.21;106850;1275;22566;-82
2023/05/25 04:08:48;;;;;;;28.10;25.60;;;;;;;10.58;100.00;98386.77;106721;1278;22518;-81
2023/05/25 04:11:17;;;;;;;28.30;25.40;;;;;;;10.58;100.00;98390.49;106678;1278;22648;-82
2023/05/25 04:13:47;;;;;;;28.10;25.20;;;;;;;10.55;100.00;98394.20;106672;1278;22550;-79
2023/05/25 04:16:15;;;;;;;29.00;26.00;;;;;;;10.57;100.00;98394.39;106637;1278;25536;-80
2023/05/25 04:18:43;;;;;;;31.40;28.60;;;;;;;10.59;100.00;98397.13;106412;1278;23398;-78
2023/05/25 04:21:11;;;;;;;36.60;30.60;;;;;;;10.58;100.00;98399.45;106590;1278;22646;-80
2023/05/25 04:23:39;;;;;;;32.00;28.80;;;;;;;10.57;100.00;98405.11;106583;1257;25458;-81
2023/05/25 04:26:09;;;;;;;31.20;28.30;;;;;;;10.56;100.00;98404.23;106982;1278;25361;-82
2023/05/25 04:28:40;;;;;;;32.00;29.10;;;;;;;10.58;100.00;98405.05;107059;1278;22769;-81
2023/05/25 04:31:28;;;;;;;33.60;30.40;;;;;;;10.63;100.00;98407.37;106850;1278;24173;-83
2023/05/25 04:34:15;;;;;;;32.30;29.30;;;;;;;10.62;100.00;98408.15;107057;1278;23199;-86
2023/05/25 04:36:57;;;;;;;35.20;31.50;;;;;;;10.63;100.00;98409.37;106760;1278;23928;-88
2023/05/25 04:39:26;;;;;;;36.70;33.20;;;;;;;10.65;100.00;98408.70;106763;1278;24247;-84
2023/05/25 04:41:57;;;;;;;39.40;35.60;;;;;;;10.64;100.00;98407.75;106605;1278;22636;-86
2023/05/25 04:44:28;;;;;;;35.80;32.20;;;;;;;10.63;100.00;98413.30;106719;1275;24059;-85
2023/05/25 04:46:58;;;;;;;36.50;33.20;;;;;;;10.67;100.00;98414.39;106703;1278;22572;-82
2023/05/25 04:49:32;;;;;;;36.50;32.90;;;;;;;10.66;100.00;98418.81;106800;1278;22528;-84
2023/05/25 04:52:00;;;;;;;35.50;31.70;;;;;;;10.68;100.00;98422.41;106664;1278;25354;-84
2023/05/25 04:54:30;;;;;;;34.70;31.20;;;;;;;10.72;100.00;98422.70;106753;1278;22529;-85
2023/05/25 04:57:01;;;;;;;31.50;28.60;;;;;;;10.75;100.00;98419.42;106866;1278;22549;-86
2023/05/25 04:59:31;;;;;;;35.10;31.80;;;;;;;10.77;100.00;98418.86;106717;1278;23158;-86
2023/05/25 05:01:59;;;;;;;33.50;30.10;;;;;;;10.74;100.00;98422.94;106672;1278;22647;-84
2023/05/25 05:04:27;;;;;;;32.00;29.10;;;;;;;10.75;100.00;98422.56;106831;1278;22519;-81
2023/05/25 05:06:56;;;;;;;30.60;27.80;;;;;;;10.76;100.00;98420.11;106624;1278;22524;-82
2023/05/25 05:09:27;;;;;;;30.50;27.60;;;;;;;10.78;100.00;98424.40;106998;1278;22649;-82
2023/05/25 05:11:57;;;;;;;28.40;25.80;;;;;;;10.83;100.00;98425.38;106604;1278;22754;-82
2023/05/25 05:14:25;;;;;;;28.50;25.60;;;;;;;10.88;100.00;98425.59;106570;1278;23473;-81
2023/05/25 05:16:53;;;;;;;30.30;27.50;;;;;;;10.87;100.00;98430.94;106577;1278;24988;-81
2023/05/25 05:19:22;;;;;;;29.00;26.30;;;;;;;10.88;100.00;98434.15;106596;1278;24075;-81
2023/05/25 05:21:50;;;;;;;29.70;27.10;;;;;;;10.86;100.00;98436.39;107242;1272;22561;-81
2023/05/25 05:24:19;;;;;;;28.20;25.60;;;;;;;10.86;100.00;98433.05;106901;1271;25326;-81
2023/05/25 05:26:47;;;;;;;29.20;26.50;;;;;;;10.86;100.00;98440.12;107885;1277;22270;-82
2023/05/25 05:29:36;;;;;;;25.90;23.30;;;;;;;10.88;100.00;98443.38;110103;1277;22271;-82
2023/05/25 05:32:05;;;;;;;23.90;21.60;;;;;;;10.90;100.00;98446.06;110133;1277;23018;-84
2023/05/25 05:34:35;;;;;;;23.30;21.20;;;;;;;10.94;100.00;98446.45;110231;1277;22930;-83
2023/05/25 05:37:07;;;;;;;;;;;;;;;10.95;100.00;98449.83;110064;1277;22420;-82
2023/05/25 05:39:36;;;;;;;24.70;22.30;;;;;;;10.94;100.00;98448.75;108895;1272;22529;-84
2023/05/25 05:42:05;;;;;;;27.60;25.10;;;;;;;10.96;100.00;98449.23;106890;1277;22661;-86
2023/05/25 05:44:34;;;;;;;27.50;25.00;;;;;;;10.98;100.00;98448.29;107111;1266;25242;-85
2023/05/25 05:47:03;;;;;;;27.60;25.10;;;;;;;11.00;100.00;98446.79;107215;1261;23047;-85
2023/05/25 05:49:33;;;;;;;26.80;24.40;;;;;;;10.99;100.00;98451.61;106814;1277;26522;-85
2023/05/25 05:52:01;;;;;;;28.00;25.30;;;;;;;10.99;100.00;98454.63;106609;1275;173587;-84
2023/05/25 05:54:29;;;;;;;26.00;23.80;;;;;;;10.98;100.00;98460.25;106720;1277;22521;-84
2023/05/25 05:57:02;;;;;;;27.20;24.60;;;;;;;10.96;100.00;98463.83;106866;1277;22528;-86
2023/05/25 05:59:30;;;;;;;25.90;23.60;;;;;;;11.00;100.00;98467.14;106856;1277;22656;-85
2023/05/25 06:01:58;;;;;;;23.20;20.90;;;;;;;11.03;100.00;98469.42;106832;1277;22522;-86
2023/05/25 06:04:27;;;;;;;22.30;20.40;;;;;;;11.07;100.00;98468.39;106935;1275;22682;-87
2023/05/25 06:06:57;;;;;;;21.30;19.40;;;;;;;11.08;100.00;98473.57;106889;1277;22572;-87
2023/05/25 06:09:25;;;;;;;23.30;21.10;;;;;;;11.08;100.00;98475.34;106659;1277;24364;-86
2023/05/25 06:11:55;;;;;;;23.70;21.40;;;;;;;11.09;100.00;98482.24;106750;1277;22577;-86
2023/05/25 06:14:23;;;;;;;21.10;19.20;;;;;;;11.08;100.00;98483.97;106706;1277;22623;-86
2023/05/25 06:16:57;;;;;;;23.40;21.20;;;;;;;11.09;100.00;98490.72;106872;1277;22525;-87
2023/05/25 06:19:25;;;;;;;24.40;22.00;;;;;;;11.12;100.00;98489.81;106605;1277;23355;-86
2023/05/25 06:21:53;;;;;;;25.00;22.80;;;;;;;11.12;100.00;98493.75;106699;1277;22536;-86
2023/05/25 06:24:22;;;;;;;23.80;21.50;;;;;;;11.08;100.00;98495.20;106868;1277;25268;-86
2023/05/25 06:26:50;;;;;;;23.10;20.90;;;;;;;11.08;100.00;98497.41;106798;1277;25284;-87
2023/05/25 06:29:19;;;;;;;23.60;21.40;;;;;;;11.08;100.00;98493.68;106646;1275;24237;-86
2023/05/25 06:31:47;;;;;;;24.30;21.60;;;;;;;11.12;100.00;98492.02;106750;1277;22517;-87
2023/05/25 06:34:15;;;;;;;27.50;24.70;;;;;;;11.14;100.00;98491.24;106919;1277;22565;-86
2023/05/25 06:36:43;;;;;;;27.10;24.70;;;;;;;11.14;100.00;98496.14;106698;1277;22565;-87
2023/05/25 06:39:11;;;;;;;27.60;25.00;;;;;;;11.16;100.00;98496.99;106673;1277;22646;-87
2023/05/25 06:41:39;;;;;;;28.00;25.20;;;;;;;11.18;100.00;98493.95;106818;1277;24250;-87
2023/05/25 06:44:08;;;;;;;26.10;23.50;;;;;;;11.19;100.00;98492.75;106985;1277;25481;-85
2023/05/25 06:46:46;;;;;;;27.20;24.50;;;;;;;11.22;100.00;98499.30;106847;1277;25371;-86
2023/05/25 06:49:15;;;;;;;26.20;23.40;;;;;;;11.25;100.00;98498.99;106861;1277;23954;-86
2023/05/25 06:51:43;;;;;;;29.80;26.90;;;;;;;11.31;100.00;98497.47;106752;1277;22638;-86
2023/05/25 06:54:13;;;;;;;29.30;26.40;;;;;;;11.29;100.00;98499.54;106812;1277;22524;-87
2023/05/25 06:56:41;;;;;;;29.60;26.80;;;;;;;11.28;100.00;98498.38;106840;1277;24406;-87
2023/05/25 06:59:10;;;;;;;28.70;26.00;;;;;;;11.27;100.00;98500.75;106915;1277;23383;-86
2023/05/25 07:01:41;;;;;;;27.90;25.40;;;;;;;11.25;100.00;98502.70;106811;1277;22544;-83
2023/05/25 07:04:10;;;;;;;27.30;24.70;;;;;;;11.23;100.00;98504.73;106830;1277;23918;-85
2023/05/25 07:06:39;;;;;;;25.20;22.50;;;;;;;11.26;100.00;98508.25;106755;1267;22516;-86
2023/05/25 07:09:07;;;;;;;25.00;22.90;;;;;;;11.31;100.00;98508.63;106892;1277;22619;-86
2023/05/25 07:11:35;;;;;;;26.70;24.10;;;;;;;11.38;100.00;98507.80;106845;1277;24340;-87
2023/05/25 07:14:02;;;;;;;25.80;23.40;;;;;;;11.41;100.00;98508.23;106895;1277;25466;-87
2023/05/25 07:16:31;;;;;;;25.00;22.80;;;;;;;11.42;100.00;98512.38;106808;1277;25588;-87
2023/05/25 07:18:59;;;;;;;24.40;22.20;;;;;;;11.42;100.00;98512.88;106855;1273;22652;-85
2023/05/25 07:21:34;;;;;;;24.30;22.10;;;;;;;11.43;100.00;98512.31;106820;1277;22529;-86
2023/05/25 07:24:02;;;;;;;27.30;24.70;;;;;;;11.46;100.00;98516.93;106797;1275;22527;-86
2023/05/25 07:26:32;;;;;;;27.80;24.90;;;;;;;11.42;100.00;98514.98;106822;1277;22635;-85
2023/05/25 07:29:00;;;;;;;26.60;24.10;;;;;;;11.44;100.00;98518.25;107027;1277;25252;-86
2023/05/25 07:31:28;;;;;;;24.90;22.80;;;;;;;11.48;100.00;98520.68;106798;1277;23005;-86
2023/05/25 07:33:56;;;;;;;22.60;20.40;;;;;;;11.53;100.00;98518.56;106830;1277;24193;-85
2023/05/25 07:36:25;;;;;;;23.60;21.40;;;;;;;11.58;100.00;98520.37;107314;1265;22537;-84
2023/05/25 07:38:53;;;;;;;26.00;23.60;;;;;;;11.60;99.99;98517.29;107053;1263;25274;-84
2023/05/25 07:41:21;;;;;;;23.10;20.80;;;;;;;11.57;100.00;98513.27;106892;1265;24138;-81
2023/05/25 07:43:51;;;;;;;23.20;21.00;;;;;;;11.59;100.00;98514.48;106853;1275;25329;-80
2023/05/25 07:46:23;;;;;;;23.90;21.40;;;;;;;11.65;100.00;98515.33;107001;1277;22528;-81
2023/05/25 07:48:53;;;;;;;25.30;22.80;;;;;;;11.67;99.84;98516.21;106928;1272;22566;-82
2023/05/25 07:51:22;;;;;;;24.90;22.80;;;;;;;11.69;99.74;98516.08;106981;1277;22612;-82
2023/05/25 07:53:51;;;;;;;24.10;21.80;;;;;;;11.68;99.65;98516.75;107089;1277;22623;-81
2023/05/25 07:56:19;;;;;;;23.80;21.60;;;;;;;11.70;99.91;98519.48;106830;1278;22553;-80
2023/05/25 07:58:48;;;;;;;23.10;20.70;;;;;;;11.73;99.90;98523.16;106955;1277;22681;-80
2023/05/25 08:01:17;;;;;;;27.60;22.30;;;;;;;11.75;99.47;98526.25;107061;1277;22514;-80
2023/05/25 08:03:45;;;;;;;22.00;19.60;;;;;;;11.76;99.48;98523.17;108558;1277;22590;-81
2023/05/25 08:06:17;;;;;;;22.10;20.10;;;;;;;11.80;99.37;98524.20;108868;1273;22545;-82
2023/05/25 08:08:45;;;;;;;21.90;20.00;;;;;;;11.84;99.43;98524.41;107244;1277;22513;-81
2023/05/25 08:11:15;;;;;;;21.10;19.10;;;;;;;11.87;98.96;98523.77;107098;1277;22560;-82
2023/05/25 08:13:43;;;;;;;20.80;19.00;;;;;;;11.84;99.05;98525.55;107253;1277;26518;-82
2023/05/25 08:16:11;;;;;;;22.10;20.20;;;;;;;11.87;98.79;98521.70;107054;1277;22517;-81
2023/05/25 08:18:45;;;;;;;19.10;17.30;;;;;;;11.87;98.25;98526.34;107126;1270;22982;-80
2023/05/25 08:21:14;;;;;;;20.20;18.20;;;;;;;11.90;98.89;98526.11;107156;1277;24224;-80
2023/05/25 08:23:42;;;;;;;21.10;19.00;;;;;;;11.98;98.90;98525.70;107063;1275;22520;-82
2023/05/25 08:26:10;;;;;;;21.20;19.10;;;;;;;12.02;98.75;98523.80;107233;1277;22690;-81
2023/05/25 08:28:59;;;;;;;21.00;19.20;;;;;;;12.10;98.89;98523.39;106969;1272;22650;-80
2023/05/25 08:31:27;;;;;;;23.30;21.20;;;;;;;12.10;97.83;98525.27;106988;1278;22536;-81
2023/05/25 08:33:55;;;;;;;46.10;34.20;;;;;;;12.06;97.62;98521.47;107049;1277;23252;-81
2023/05/25 08:36:25;;;;;;;23.80;21.40;;;;;;;12.04;97.48;98515.98;107171;1277;22628;-80
2023/05/25 08:38:55;;;;;;;22.20;20.20;;;;;;;12.04;97.49;98517.67;107136;1277;22544;-81
2023/05/25 08:41:23;;;;;;;24.90;22.40;;;;;;;12.04;97.14;98515.42;107169;1277;24227;-80
2023/05/25 08:43:52;;;;;;;21.30;19.50;;;;;;;12.08;96.86;98517.88;106831;1278;24159;-80
2023/05/25 08:46:32;;;;;;;22.50;20.50;;;;;;;12.10;96.92;98519.86;106996;1278;22697;-81
2023/05/25 08:49:10;;;;;;;23.70;21.60;;;;;;;12.17;97.00;98520.89;106961;1277;22537;-80
2023/05/25 08:51:48;;;;;;;24.40;22.30;;;;;;;12.21;96.86;98522.23;106962;1277;22523;-80
2023/05/25 08:54:18;;;;;;;28.10;25.30;;;;;;;12.23;96.90;98519.33;107117;1277;22661;-80
2023/05/25 08:56:50;;;;;;;25.20;23.00;;;;;;;12.25;96.21;98517.02;107627;1278;22536;-80
2023/05/25 08:59:25;;;;;;;22.70;20.50;;;;;;;12.28;96.43;98517.33;107459;1277;22523;-80
2023/05/25 09:02:04;;;;;;;21.20;19.40;;;;;;;12.39;96.95;98519.64;107268;1272;22633;-80
2023/05/25 09:04:33;;;;;;;24.40;22.30;;;;;;;12.47;97.03;98519.22;107188;1275;22758;-81
2023/05/25 09:07:02;;;;;;;24.10;21.70;;;;;;;12.56;96.01;98522.38;107094;1269;24221;-80
2023/05/25 09:09:39;;;;;;;22.60;20.40;;;;;;;12.53;95.86;98521.62;106981;1277;24070;-80
2023/05/25 09:12:07;;;;;;;22.70;20.70;;;;;;;12.56;96.02;98516.70;106891;1277;22591;-80
2023/05/25 09:14:36;;;;;;;25.70;23.40;;;;;;;12.55;95.83;98518.06;108296;1269;24193;-81
2023/05/25 09:17:06;;;;;;;26.50;24.30;;;;;;;12.57;96.21;98516.14;108769;1272;23168;-80
2023/05/25 09:19:35;;;;;;;25.70;23.50;;;;;;;12.65;96.32;98522.71;107127;1278;22581;-81
2023/05/25 09:22:03;;;;;;;23.50;21.30;;;;;;;12.73;95.96;98524.20;106857;1278;22944;-81
2023/05/25 09:24:43;;;;;;;26.40;24.10;;;;;;;12.79;95.89;98521.05;107115;1273;22726;-80
2023/05/25 09:27:16;;;;;;;30.90;28.20;;;;;;;12.78;94.81;98516.09;107122;1277;22795;-80
2023/05/25 09:29:48;;;;;;;27.90;25.30;;;;;;;12.72;94.35;98525.56;106973;1277;24238;-80
2023/05/25 09:32:18;;;;;;;27.30;24.60;;;;;;;12.62;94.64;98529.20;106912;1275;22644;-81
2023/05/25 09:34:46;;;;;;;30.70;27.60;;;;;;;12.58;94.51;98537.32;106829;1278;25214;-81
2023/05/25 09:37:17;;;;;;;31.50;28.50;;;;;;;12.51;94.91;98541.16;106859;1278;22592;-81
2023/05/25 09:39:46;;;;;;;34.80;31.20;;;;;;;12.49;95.19;98538.00;106824;1278;25213;-81
2023/05/25 09:42:15;;;;;;;37.00;33.60;;;;;;;12.50;95.08;98541.50;106942;1277;22579;-81
2023/05/25 09:44:43;;;;;;;36.10;33.00;;;;;;;12.47;95.03;98543.83;107116;1277;23151;-80
2023/05/25 09:47:14;;;;;;;37.00;33.80;;;;;;;12.47;95.16;98542.46;107028;1277;25461;-82
2023/05/25 09:49:43;;;;;;;35.80;32.70;;;;;;;12.48;95.20;98544.39;106993;1278;24248;-80
2023/05/25 09:52:11;;;;;;;39.70;35.70;;;;;;;12.52;95.10;98542.19;107016;1277;22598;-80
2023/05/25 09:54:44;;;;;;;37.10;33.90;;;;;;;12.54;94.89;98541.93;107058;1277;22532;-81
2023/05/25 09:57:13;;;;;;;37.00;33.60;;;;;;;12.53;94.84;98539.62;107060;1277;24189;-80
2023/05/25 09:59:41;;;;;;;36.10;32.60;;;;;;;12.53;95.11;98535.73;107012;1277;25458;-81
2023/05/25 10:02:10;;;;;;;35.80;32.30;;;;;;;12.55;95.00;98539.21;106916;1277;25420;-80
2023/05/25 10:04:39;;;;;;;39.30;35.50;;;;;;;12.62;95.27;98536.77;107118;1277;24246;-81
2023/05/25 10:07:07;;;;;;;39.10;34.50;;;;;;;12.68;94.84;98546.27;107070;1277;22521;-81
2023/05/25 10:09:41;;;;;;;37.50;34.10;;;;;;;12.67;94.78;98548.08;107057;1277;25599;-81
2023/05/25 10:12:12;;;;;;;37.50;34.30;;;;;;;12.63;94.12;98547.23;106980;1277;22535;-80
2023/05/25 10:14:42;;;;;;;36.90;33.30;;;;;;;12.62;94.31;98545.64;106965;1277;25316;-80
2023/05/25 10:17:17;;;;;;;35.80;31.50;;;;;;;12.66;95.08;98543.89;107071;1267;22732;-80
2023/05/25 10:19:59;;;;;;;35.00;31.50;;;;;;;12.75;94.94;98545.09;107016;1277;25363;-80
2023/05/25 10:22:47;;;;;;;37.30;33.70;;;;;;;12.79;94.62;98544.80;106981;1277;26580;-79
2023/05/25 10:25:21;;;;;;;35.10;31.40;;;;;;;12.81;93.90;98540.44;106921;1277;22575;-82
2023/05/25 10:28:01;;;;;;;33.60;30.40;;;;;;;12.77;94.05;98540.35;106961;1277;22573;-83
2023/05/25 10:30:31;;;;;;;31.30;28.20;;;;;;;12.73;93.93;98539.77;107013;1277;22662;-81
2023/05/25 10:33:01;;;;;;;34.00;30.50;;;;;;;12.71;94.06;98540.33;107023;1277;22633;-82
2023/05/25 10:35:30;;;;;;;38.20;34.30;;;;;;;12.69;94.04;98539.00;107167;1277;22675;-82
2023/05/25 10:38:07;;;;;;;39.30;35.50;;;;;;;12.69;94.11;98542.21;107035;1277;25531;-81
2023/05/25 10:40:37;;;;;;;37.20;33.60;;;;;;;12.69;94.07;98539.39;106990;1277;26639;-80
2023/05/25 10:43:05;;;;;;;36.20;32.70;;;;;;;12.76;94.31;98538.20;107074;1277;22597;-81
2023/05/25 10:45:34;;;;;;;34.50;31.20;;;;;;;12.82;94.21;98536.47;107141;1277;22474;-81
2023/05/25 10:48:02;;;;;;;36.00;32.70;;;;;;;12.89;94.20;98540.04;107091;1277;22524;-81
2023/05/25 10:50:34;;;;;;;36.30;32.90;;;;;;;12.90;93.55;98538.39;107060;1277;22530;-81
2023/05/25 10:53:12;;;;;;;37.40;34.00;;;;;;;12.86;93.39;98539.16;107124;1277;25479;-82
2023/05/25 10:55:52;;;;;;;32.80;29.60;;;;;;;12.85;93.25;98542.86;107157;1277;22533;-80
2023/05/25 10:58:25;;;;;;;33.10;30.20;;;;;;;12.86;93.82;98545.50;106875;1269;24267;-82
2023/05/25 11:01:10;;;;;;;35.80;32.60;;;;;;;12.84;93.41;98539.52;106872;1278;22585;-81
2023/05/25 11:03:48;;;;;;;;;;;;;;;12.85;93.70;98545.84;106905;1278;25308;-81
2023/05/25 11:06:20;;;;;;;34.20;30.80;;;;;;;12.90;94.02;98540.11;106912;1278;24253;-81
2023/05/25 11:08:59;;;;;;;32.20;29.60;;;;;;;12.95;93.46;98536.95;106968;1275;25449;-81
2023/05/25 11:11:43;;;;;;;35.50;32.50;;;;;;;13.01;93.58;98540.09;106864;1278;25315;-85
2023/05/25 11:14:31;;;;;;;35.70;32.40;;;;;;;13.02;93.23;98539.73;106886;1278;22532;-80
2023/05/25 11:17:10;;;;;;;36.00;33.00;;;;;;;12.95;92.78;98537.75;107082;1278;23276;-84
2023/05/25 11:19:42;;;;;;;34.80;31.80;;;;;;;12.92;92.87;98529.54;107115;1277;25153;-83